Time;durP1;ratioP1;P1;durP2;ratioP2;P2;SDS_P1;SDS_P2;PMS_P1;PMS_P2;Temp;Humidity;BMP_temperature;BMP_pressure;BME280_temperature;BME280_humidity;BME280_pressure;Samples;Min_cycle;Max_cycle;Signal;HPM_P1;HPM_P2
2021/05/02 00:00:05;;;;;;;55.45;25.27;;;;;;;;;;5091133;28;20028;-52
2021/05/02 00:02:31;;;;;;;49.78;26.45;;;;;;;;;;5092791;28;20093;-53
2021/05/02 00:04:57;;;;;;;53.83;26.10;;;;;;;;;;5094958;28;20028;-52
2021/05/02 00:07:23;;;;;;;53.70;25.75;;;;;;;;;;5095158;28;20027;-51
2021/05/02 00:09:49;;;;;;;47.45;23.38;;;;;;;;;;5076938;28;20360;-56
2021/05/02 00:12:15;;;;;;;71.53;31.92;;;;;;;;;;5094800;28;20052;-54
2021/05/02 00:14:41;;;;;;;112.45;44.20;;;;;;;;;;5095043;28;20412;-54
2021/05/02 00:17:08;;;;;;;160.20;58.95;;;;;;;;;;5094569;28;20107;-54
2021/05/02 00:19:34;;;;;;;436.58;139.85;;;;;;;;;;5094963;28;20036;-53
2021/05/02 00:22:01;;;;;;;322.42;102.53;;;;;;;;;;5094716;28;20096;-55
2021/05/02 00:24:27;;;;;;;178.05;61.67;;;;;;;;;;5094676;28;20319;-54
2021/05/02 00:26:53;;;;;;;85.43;34.22;;;;;;;;;;5094721;28;20020;-57
2021/05/02 00:29:20;;;;;;;41.88;21.17;;;;;;;;;;5094742;28;20028;-53
2021/05/02 00:31:47;;;;;;;32.75;18.50;;;;;;;;;;5094932;28;20099;-51
2021/05/02 00:34:13;;;;;;;107.72;41.13;;;;;;;;;;5094208;28;20491;-55
2021/05/02 00:36:39;;;;;;;137.90;52.55;;;;;;;;;;5094586;28;20016;-52
2021/05/02 00:39:06;;;;;;;116.05;46.28;;;;;;;;;;5094624;28;20468;-57
2021/05/02 00:41:33;;;;;;;101.72;41.10;;;;;;;;;;5094314;28;20075;-52
2021/05/02 00:44:04;;;;;;;91.05;38.47;;;;;;;;;;5094573;28;20420;-51
2021/05/02 00:46:47;;;;;;;66.88;28.88;;;;;;;;;;5094359;28;20024;-52
2021/05/02 00:49:17;;;;;;;73.13;31.65;;;;;;;;;;5094218;28;20067;-52
2021/05/02 00:54:18;;;;;;;96.28;39.47;;;;;;;;;;5031922;28;20049;-55
2021/05/02 00:56:53;;;;;;;93.72;37.60;;;;;;;;;;5033845;28;20037;-52
2021/05/02 00:59:22;;;;;;;89.85;36.75;;;;;;;;;;5033927;28;20075;-52
2021/05/02 01:01:52;;;;;;;80.82;36.83;;;;;;;;;;5033989;28;20468;-54
2021/05/02 01:04:25;;;;;;;60.22;27.95;;;;;;;;;;5033783;28;20499;-52
2021/05/02 01:06:52;;;;;;;50.75;23.05;;;;;;;;;;5034032;28;20035;-50
2021/05/02 01:09:18;;;;;;;43.22;21.40;;;;;;;;;;5033590;28;20026;-50
2021/05/02 01:11:46;;;;;;;40.75;21.17;;;;;;;;;;5033673;28;20144;-49
2021/05/02 01:14:13;;;;;;;27.80;15.48;;;;;;;;;;5033644;28;20029;-49
2021/05/02 01:16:40;;;;;;;27.30;15.20;;;;;;;;;;5033502;28;20025;-53
2021/05/02 01:19:11;;;;;;;26.58;14.60;;;;;;;;;;5033517;28;20026;-49
2021/05/02 01:21:38;;;;;;;25.85;15.13;;;;;;;;;;5033411;28;20057;-52
2021/05/02 01:24:07;;;;;;;26.40;13.93;;;;;;;;;;5033297;28;20084;-49
2021/05/02 01:26:35;;;;;;;26.13;14.35;;;;;;;;;;5033557;28;20018;-52
2021/05/02 01:29:01;;;;;;;28.63;14.90;;;;;;;;;;5033558;28;20092;-50
2021/05/02 01:31:28;;;;;;;23.98;12.80;;;;;;;;;;5033347;28;20061;-50
2021/05/02 01:33:54;;;;;;;23.25;13.27;;;;;;;;;;5033228;28;20890;-52
2021/05/02 01:36:21;;;;;;;26.40;13.25;;;;;;;;;;5033242;28;20055;-49
2021/05/02 01:38:48;;;;;;;25.65;13.27;;;;;;;;;;5032947;28;20025;-49
2021/05/02 01:41:14;;;;;;;24.17;12.93;;;;;;;;;;5033081;28;20026;-49
2021/05/02 01:43:40;;;;;;;24.50;14.48;;;;;;;;;;5033003;28;20049;-50
2021/05/02 01:46:06;;;;;;;25.90;13.75;;;;;;;;;;5033006;28;20017;-49
2021/05/02 01:48:33;;;;;;;32.70;14.25;;;;;;;;;;5033131;28;20025;-48
2021/05/02 01:51:04;;;;;;;34.15;15.05;;;;;;;;;;5032808;28;20105;-49
2021/05/02 01:53:31;;;;;;;27.40;14.48;;;;;;;;;;5032670;28;20129;-49
2021/05/02 01:55:59;;;;;;;30.40;13.95;;;;;;;;;;5032784;28;20048;-52
2021/05/02 01:58:26;;;;;;;24.75;13.23;;;;;;;;;;5032758;28;20210;-53
2021/05/02 02:00:54;;;;;;;18.92;11.38;;;;;;;;;;5032717;28;20044;-56
2021/05/02 02:03:21;;;;;;;24.80;13.15;;;;;;;;;;5032742;28;20513;-54
2021/05/02 02:05:47;;;;;;;26.92;13.27;;;;;;;;;;5032632;28;20105;-55
2021/05/02 02:08:14;;;;;;;27.95;14.00;;;;;;;;;;5032435;28;20033;-52
2021/05/02 02:10:40;;;;;;;30.08;15.23;;;;;;;;;;5032571;28;20393;-52
2021/05/02 02:13:08;;;;;;;27.42;13.38;;;;;;;;;;5032508;28;20029;-57
2021/05/02 02:15:34;;;;;;;25.50;13.38;;;;;;;;;;5032377;28;20029;-52
2021/05/02 02:18:00;;;;;;;30.48;14.02;;;;;;;;;;5032443;28;20097;-53
2021/05/02 02:20:27;;;;;;;29.98;15.30;;;;;;;;;;5032563;28;20029;-53
2021/05/02 02:22:56;;;;;;;37.55;17.48;;;;;;;;;;5032168;28;20473;-56
2021/05/02 02:25:26;;;;;;;35.67;17.58;;;;;;;;;;5031422;28;20049;-54
2021/05/02 02:27:54;;;;;;;37.38;16.63;;;;;;;;;;5032437;28;20092;-53
2021/05/02 02:30:21;;;;;;;34.05;15.75;;;;;;;;;;5032193;28;20107;-55
2021/05/02 02:32:48;;;;;;;35.95;16.58;;;;;;;;;;5032125;28;20030;-53
2021/05/02 02:35:16;;;;;;;39.92;17.67;;;;;;;;;;5032004;28;20477;-53
2021/05/02 02:37:46;;;;;;;35.92;16.27;;;;;;;;;;5031941;28;20032;-52
2021/05/02 02:40:16;;;;;;;34.15;17.73;;;;;;;;;;5032041;28;20108;-52
2021/05/02 02:42:46;;;;;;;39.55;16.35;;;;;;;;;;5031978;28;20021;-53
2021/05/02 02:45:12;;;;;;;31.33;15.60;;;;;;;;;;5031924;28;20017;-51
2021/05/02 02:47:41;;;;;;;31.17;16.02;;;;;;;;;;5031945;28;20025;-52
2021/05/02 02:50:09;;;;;;;32.35;15.60;;;;;;;;;;5031995;28;20022;-48
2021/05/02 02:52:41;;;;;;;29.65;15.50;;;;;;;;;;5031869;28;20053;-50
2021/05/02 02:55:09;;;;;;;34.53;16.90;;;;;;;;;;5031726;28;20498;-51
2021/05/02 02:57:40;;;;;;;32.60;15.88;;;;;;;;;;5031850;28;20488;-52
2021/05/02 03:00:07;;;;;;;39.50;18.27;;;;;;;;;;5014179;28;20030;-52
2021/05/02 03:02:35;;;;;;;39.83;17.63;;;;;;;;;;5031691;28;20461;-51
2021/05/02 03:05:02;;;;;;;36.95;17.35;;;;;;;;;;5031681;28;20022;-50
2021/05/02 03:07:31;;;;;;;35.85;17.65;;;;;;;;;;5031664;28;20060;-50
2021/05/02 03:09:58;;;;;;;33.08;17.20;;;;;;;;;;5031415;28;20480;-50
2021/05/02 03:12:24;;;;;;;38.05;18.55;;;;;;;;;;5031592;28;20021;-51
2021/05/02 03:14:51;;;;;;;29.92;16.25;;;;;;;;;;5031425;28;20033;-49
2021/05/02 03:17:37;;;;;;;33.42;16.45;;;;;;;;;;5031485;28;20022;-50
2021/05/02 03:20:06;;;;;;;29.25;14.82;;;;;;;;;;5031314;28;20029;-50
2021/05/02 03:22:36;;;;;;;28.83;14.93;;;;;;;;;;5031315;28;20021;-50
2021/05/02 03:25:04;;;;;;;30.20;17.45;;;;;;;;;;5031289;28;20033;-51
2021/05/02 03:27:40;;;;;;;52.00;23.02;;;;;;;;;;5031412;28;20390;-54
2021/05/02 03:30:07;;;;;;;53.55;22.85;;;;;;;;;;5031521;28;20060;-52
2021/05/02 03:32:35;;;;;;;83.97;31.08;;;;;;;;;;5031261;28;20029;-53
2021/05/02 03:35:03;;;;;;;70.07;28.80;;;;;;;;;;5031421;28;20439;-52
2021/05/02 03:37:32;;;;;;;53.63;24.67;;;;;;;;;;5034934;28;20112;-51
2021/05/02 03:39:58;;;;;;;80.68;31.70;;;;;;;;;;5035129;28;20032;-50
2021/05/02 03:42:25;;;;;;;78.80;31.27;;;;;;;;;;5035303;28;20503;-49
2021/05/02 03:44:51;;;;;;;60.90;26.08;;;;;;;;;;5035439;28;20423;-49
2021/05/02 03:47:17;;;;;;;51.30;22.85;;;;;;;;;;5035168;28;20061;-49
2021/05/02 03:49:43;;;;;;;43.95;22.17;;;;;;;;;;5035214;28;20025;-51
2021/05/02 03:52:12;;;;;;;38.53;21.50;;;;;;;;;;5035052;28;20021;-53
2021/05/02 03:54:38;;;;;;;41.95;21.95;;;;;;;;;;5034906;28;20037;-50
2021/05/02 03:57:05;;;;;;;39.35;22.48;;;;;;;;;;5035015;28;20021;-50
2021/05/02 03:59:31;;;;;;;37.30;21.83;;;;;;;;;;5034980;28;20084;-50
2021/05/02 04:01:58;;;;;;;40.40;23.08;;;;;;;;;;5035218;28;20032;-49
2021/05/02 04:04:29;;;;;;;39.97;22.73;;;;;;;;;;5034898;28;20026;-48
2021/05/02 04:07:02;;;;;;;43.28;22.70;;;;;;;;;;5034849;28;20377;-50
2021/05/02 04:09:29;;;;;;;36.30;20.98;;;;;;;;;;5034606;28;20427;-52
2021/05/02 04:11:55;;;;;;;36.50;19.63;;;;;;;;;;5034982;28;20032;-50
2021/05/02 04:14:22;;;;;;;34.70;21.42;;;;;;;;;;5034654;28;20025;-51
2021/05/02 04:16:58;;;;;;;44.05;22.67;;;;;;;;;;5034707;28;20453;-53
2021/05/02 04:19:24;;;;;;;40.58;24.10;;;;;;;;;;5034662;28;20032;-50
2021/05/02 04:21:50;;;;;;;40.08;23.55;;;;;;;;;;5034543;28;20354;-49
2021/05/02 04:24:17;;;;;;;45.95;23.65;;;;;;;;;;5034588;28;20108;-49
2021/05/02 04:26:48;;;;;;;44.30;24.25;;;;;;;;;;5034919;28;20072;-53
2021/05/02 04:29:14;;;;;;;43.40;23.98;;;;;;;;;;5034786;28;20087;-50
2021/05/02 04:31:40;;;;;;;46.95;26.25;;;;;;;;;;5034578;28;20423;-51
2021/05/02 04:34:06;;;;;;;42.90;22.25;;;;;;;;;;5034195;28;20025;-49
2021/05/02 04:36:32;;;;;;;37.70;22.30;;;;;;;;;;5034251;28;20033;-53
2021/05/02 04:38:59;;;;;;;45.50;23.45;;;;;;;;;;5034307;28;20040;-52
2021/05/02 04:41:25;;;;;;;46.15;23.50;;;;;;;;;;5034108;28;20075;-54
2021/05/02 04:43:52;;;;;;;37.22;21.30;;;;;;;;;;5034107;28;20029;-54
2021/05/02 04:46:18;;;;;;;31.73;18.23;;;;;;;;;;5034151;28;20026;-52
2021/05/02 04:48:44;;;;;;;38.88;21.13;;;;;;;;;;5033489;28;20491;-58
2021/05/02 04:51:12;;;;;;;31.83;18.60;;;;;;;;;;5033959;28;20022;-55
2021/05/02 04:53:38;;;;;;;29.25;16.42;;;;;;;;;;5033794;28;20129;-55
2021/05/02 04:56:04;;;;;;;26.25;15.52;;;;;;;;;;5033760;28;20565;-52
2021/05/02 04:58:31;;;;;;;36.38;17.92;;;;;;;;;;5033866;28;20025;-54
2021/05/02 05:00:57;;;;;;;26.17;14.70;;;;;;;;;;5033893;28;20037;-56
2021/05/02 05:03:23;;;;;;;23.17;13.45;;;;;;;;;;5034171;28;20067;-54
2021/05/02 05:05:50;;;;;;;24.92;11.82;;;;;;;;;;5034112;28;20079;-54
2021/05/02 05:08:16;;;;;;;23.60;11.23;;;;;;;;;;5034109;28;20354;-56
2021/05/02 05:10:42;;;;;;;17.80;10.30;;;;;;;;;;5033623;28;20045;-55
2021/05/02 05:13:08;;;;;;;23.02;10.63;;;;;;;;;;5033610;28;20109;-55
2021/05/02 05:15:35;;;;;;;19.33;10.00;;;;;;;;;;5033474;28;20037;-56
2021/05/02 05:18:01;;;;;;;21.65;11.38;;;;;;;;;;5033539;28;20075;-54
2021/05/02 05:20:27;;;;;;;18.30;9.73;;;;;;;;;;5033538;28;20500;-56
2021/05/02 05:22:53;;;;;;;24.65;11.52;;;;;;;;;;5033545;28;20018;-59
2021/05/02 05:25:19;;;;;;;23.42;11.55;;;;;;;;;;5033249;28;20493;-56
2021/05/02 05:27:45;;;;;;;24.58;10.80;;;;;;;;;;5033530;28;20021;-55
2021/05/02 05:30:12;;;;;;;21.15;9.43;;;;;;;;;;5033297;28;20022;-57
2021/05/02 05:32:38;;;;;;;19.08;9.52;;;;;;;;;;5033480;28;20469;-57
2021/05/02 05:35:05;;;;;;;20.58;9.82;;;;;;;;;;5033210;28;20029;-58
2021/05/02 05:37:31;;;;;;;23.67;10.35;;;;;;;;;;5033218;28;20025;-57
2021/05/02 05:39:57;;;;;;;16.92;8.68;;;;;;;;;;5033054;28;20030;-58
2021/05/02 05:42:23;;;;;;;19.77;8.88;;;;;;;;;;5033334;28;20052;-55
2021/05/02 05:44:49;;;;;;;18.45;7.20;;;;;;;;;;5033490;28;20021;-57
2021/05/02 05:47:16;;;;;;;17.73;7.22;;;;;;;;;;5033131;28;20021;-56
2021/05/02 05:49:42;;;;;;;12.80;5.95;;;;;;;;;;5033123;28;20021;-58
2021/05/02 05:52:09;;;;;;;13.90;6.55;;;;;;;;;;5032700;28;20029;-57
2021/05/02 05:54:39;;;;;;;14.50;6.28;;;;;;;;;;5032828;28;20547;-56
2021/05/02 05:57:05;;;;;;;16.75;6.90;;;;;;;;;;5032553;28;20056;-57
2021/05/02 05:59:31;;;;;;;13.52;6.38;;;;;;;;;;5032956;28;20426;-56
2021/05/02 06:01:57;;;;;;;16.05;5.60;;;;;;;;;;5032773;28;20036;-52
2021/05/02 06:04:24;;;;;;;13.38;5.65;;;;;;;;;;5032566;28;20021;-55
2021/05/02 06:06:50;;;;;;;13.68;5.47;;;;;;;;;;5032793;28;20017;-56
2021/05/02 06:09:16;;;;;;;13.95;6.18;;;;;;;;;;5032747;28;20104;-56
2021/05/02 06:11:42;;;;;;;14.85;5.88;;;;;;;;;;5032635;28;20030;-57
2021/05/02 06:14:09;;;;;;;14.10;5.45;;;;;;;;;;5032341;28;20025;-58
2021/05/02 06:16:35;;;;;;;11.55;5.00;;;;;;;;;;5032444;28;20176;-57
2021/05/02 06:19:01;;;;;;;13.40;5.63;;;;;;;;;;5032902;28;20048;-57
2021/05/02 06:21:27;;;;;;;12.98;5.47;;;;;;;;;;5032264;28;20083;-58
2021/05/02 06:23:54;;;;;;;12.35;5.47;;;;;;;;;;5033257;28;20105;-55
2021/05/02 06:26:21;;;;;;;14.82;6.57;;;;;;;;;;5032221;28;20029;-57
2021/05/02 06:28:49;;;;;;;14.30;6.18;;;;;;;;;;5032469;28;20052;-61
2021/05/02 06:31:15;;;;;;;14.93;5.88;;;;;;;;;;5032108;28;20053;-58
2021/05/02 06:33:41;;;;;;;13.00;5.00;;;;;;;;;;5032087;28;20021;-57
2021/05/02 06:36:08;;;;;;;13.35;5.47;;;;;;;;;;5031975;28;20042;-57
2021/05/02 06:38:34;;;;;;;13.23;5.68;;;;;;;;;;5032042;28;20126;-59
2021/05/02 06:41:00;;;;;;;17.58;5.72;;;;;;;;;;5031756;28;20025;-57
2021/05/02 06:43:27;;;;;;;12.30;4.90;;;;;;;;;;5032157;28;20409;-57
2021/05/02 06:45:53;;;;;;;13.00;5.00;;;;;;;;;;5031881;28;20100;-56
2021/05/02 06:48:19;;;;;;;14.82;5.45;;;;;;;;;;5031899;28;20108;-56
2021/05/02 06:50:45;;;;;;;11.82;4.72;;;;;;;;;;5031760;28;20036;-56
2021/05/02 06:53:11;;;;;;;13.65;5.35;;;;;;;;;;5032062;28;20041;-58
2021/05/02 06:55:37;;;;;;;13.35;4.93;;;;;;;;;;5031688;28;20033;-58
2021/05/02 06:58:04;;;;;;;10.63;4.53;;;;;;;;;;5031663;28;20028;-58
2021/05/02 07:00:30;;;;;;;9.43;4.50;;;;;;;;;;5031674;28;20068;-58
2021/05/02 07:02:56;;;;;;;8.68;3.97;;;;;;;;;;5033359;28;20029;-58
2021/05/02 07:05:22;;;;;;;9.90;4.20;;;;;;;;;;5031657;28;20017;-58
2021/05/02 07:07:49;;;;;;;14.30;5.68;;;;;;;;;;5031756;28;20026;-58
2021/05/02 07:10:15;;;;;;;14.02;5.60;;;;;;;;;;5032998;28;20033;-58
2021/05/02 07:12:41;;;;;;;11.45;4.43;;;;;;;;;;5031590;28;20076;-57
2021/05/02 07:15:08;;;;;;;11.60;4.50;;;;;;;;;;5031378;28;20477;-58
2021/05/02 07:17:34;;;;;;;11.73;4.13;;;;;;;;;;5031391;28;20034;-58
2021/05/02 07:20:00;;;;;;;9.30;3.40;;;;;;;;;;5031373;28;20026;-57
2021/05/02 07:22:28;;;;;;;13.38;4.53;;;;;;;;;;5031360;28;20029;-58
2021/05/02 07:24:54;;;;;;;10.35;4.68;;;;;;;;;;5031429;28;20030;-58
2021/05/02 07:27:20;;;;;;;9.05;4.53;;;;;;;;;;5031307;28;20057;-59
2021/05/02 07:29:47;;;;;;;9.23;4.40;;;;;;;;;;5031230;28;20536;-59
2021/05/02 07:32:13;;;;;;;10.95;4.22;;;;;;;;;;5031315;28;20477;-58
2021/05/02 07:34:39;;;;;;;11.38;4.20;;;;;;;;;;5031162;28;20042;-59
2021/05/02 07:37:06;;;;;;;10.48;4.60;;;;;;;;;;5031250;28;20021;-59
2021/05/02 07:39:32;;;;;;;15.10;4.90;;;;;;;;;;5031529;28;20022;-57
2021/05/02 07:41:58;;;;;;;9.90;4.40;;;;;;;;;;5031038;28;20469;-58
2021/05/02 07:44:24;;;;;;;11.02;4.57;;;;;;;;;;5031423;28;20030;-57
2021/05/02 07:46:50;;;;;;;17.98;5.25;;;;;;;;;;5031106;28;20022;-56
2021/05/02 07:49:16;;;;;;;11.00;4.22;;;;;;;;;;5031211;28;20033;-57
2021/05/02 07:51:42;;;;;;;11.20;4.40;;;;;;;;;;5031153;28;20024;-59
2021/05/02 07:54:09;;;;;;;13.75;5.00;;;;;;;;;;5030927;28;20053;-59
2021/05/02 07:56:35;;;;;;;13.13;4.55;;;;;;;;;;5030967;28;19967;-57
2021/05/02 07:59:01;;;;;;;14.38;4.93;;;;;;;;;;5031102;28;20017;-59
2021/05/02 08:01:27;;;;;;;12.90;4.57;;;;;;;;;;5031274;28;20025;-59
2021/05/02 08:03:53;;;;;;;9.57;5.03;;;;;;;;;;5031472;28;20117;-58
2021/05/02 08:06:19;;;;;;;15.27;5.07;;;;;;;;;;5031242;28;20373;-59
2021/05/02 08:08:45;;;;;;;11.85;4.75;;;;;;;;;;5031025;28;20030;-59
2021/05/02 08:11:11;;;;;;;14.35;5.00;;;;;;;;;;5030937;28;20029;-60
2021/05/02 08:13:37;;;;;;;12.05;4.30;;;;;;;;;;5030691;28;20473;-59
2021/05/02 08:16:04;;;;;;;11.38;4.82;;;;;;;;;;5030893;28;20477;-60
2021/05/02 08:18:30;;;;;;;14.30;5.10;;;;;;;;;;5030986;28;20088;-59
2021/05/02 08:20:57;;;;;;;12.65;4.90;;;;;;;;;;5031048;28;20025;-59
2021/05/02 08:23:23;;;;;;;13.57;5.53;;;;;;;;;;5032682;28;20498;-59
2021/05/02 08:25:49;;;;;;;21.65;5.15;;;;;;;;;;5034579;28;20565;-59
2021/05/02 08:28:15;;;;;;;14.05;4.88;;;;;;;;;;5034357;28;20032;-57
2021/05/02 08:30:41;;;;;;;12.05;4.78;;;;;;;;;;5034691;28;20346;-53
2021/05/02 08:33:07;;;;;;;15.57;5.32;;;;;;;;;;5034560;28;20481;-58
2021/05/02 08:35:33;;;;;;;13.75;4.95;;;;;;;;;;5034333;28;20040;-59
2021/05/02 08:38:00;;;;;;;11.15;3.95;;;;;;;;;;5034411;28;20108;-59
2021/05/02 08:40:26;;;;;;;12.50;4.90;;;;;;;;;;5034510;28;20022;-57
2021/05/02 08:42:53;;;;;;;13.32;4.05;;;;;;;;;;5034092;28;20030;-59
2021/05/02 08:45:19;;;;;;;13.30;4.03;;;;;;;;;;5034180;28;20029;-60
2021/05/02 08:47:48;;;;;;;10.77;4.15;;;;;;;;;;5016378;28;20021;-60
2021/05/02 08:50:15;;;;;;;12.18;4.15;;;;;;;;;;5034230;28;20092;-59
2021/05/02 08:52:41;;;;;;;13.65;4.60;;;;;;;;;;5034009;28;20128;-60
2021/05/02 08:55:07;;;;;;;10.20;4.05;;;;;;;;;;5033981;28;20037;-60
2021/05/02 08:57:34;;;;;;;16.88;4.97;;;;;;;;;;5033878;28;20068;-60
2021/05/02 09:00:01;;;;;;;13.55;4.53;;;;;;;;;;5034326;28;20245;-60
2021/05/02 09:02:29;;;;;;;12.98;4.78;;;;;;;;;;5034095;28;20025;-55
2021/05/02 09:04:56;;;;;;;13.52;4.50;;;;;;;;;;5033794;28;20028;-60
2021/05/02 09:07:22;;;;;;;13.02;4.68;;;;;;;;;;5033803;28;20065;-61
2021/05/02 09:09:48;;;;;;;17.48;4.07;;;;;;;;;;5033833;28;20029;-58
2021/05/02 09:12:21;;;;;;;11.98;3.50;;;;;;;;;;5033647;28;20025;-57
2021/05/02 09:14:48;;;;;;;12.88;4.13;;;;;;;;;;5033957;28;20025;-60
2021/05/02 09:17:26;;;;;;;16.85;4.00;;;;;;;;;;5016051;28;20480;-60
2021/05/02 09:19:52;;;;;;;11.75;3.67;;;;;;;;;;5016081;28;20063;-60
2021/05/02 09:22:20;;;;;;;12.32;3.83;;;;;;;;;;5016038;28;20106;-60
2021/05/02 09:25:00;;;;;;;9.70;2.80;;;;;;;;;;5016189;28;20534;-61
2021/05/02 09:27:26;;;;;;;11.55;3.28;;;;;;;;;;5015925;28;20110;-60
2021/05/02 09:29:52;;;;;;;11.68;3.33;;;;;;;;;;5033480;28;20424;-49
2021/05/02 09:32:24;;;;;;;13.32;3.85;;;;;;;;;;5033648;28;20022;-56
2021/05/02 09:34:51;;;;;;;15.93;3.70;;;;;;;;;;5033074;28;20036;-59
2021/05/02 09:37:17;;;;;;;10.85;2.90;;;;;;;;;;5034890;28;20108;-60
2021/05/02 09:39:48;;;;;;;8.43;3.00;;;;;;;;;;5033237;28;20018;-60
2021/05/02 09:42:18;;;;;;;9.95;2.53;;;;;;;;;;5033145;28;20033;-61
2021/05/02 09:44:45;;;;;;;13.68;2.90;;;;;;;;;;5033203;28;20577;-55
2021/05/02 09:47:29;;;;;;;15.05;3.03;;;;;;;;;;5033204;28;20026;-61
2021/05/02 09:50:06;;;;;;;10.52;2.95;;;;;;;;;;5033354;28;20021;-61
2021/05/02 09:52:47;;;;;;;11.55;3.00;;;;;;;;;;5032969;28;20045;-59
2021/05/02 09:55:19;;;;;;;8.95;2.50;;;;;;;;;;5032886;28;20072;-62
2021/05/02 09:58:02;;;;;;;11.50;2.83;;;;;;;;;;5032848;28;20381;-60
2021/05/02 10:00:28;;;;;;;;;;;;;;;;;;5033398;28;20496;-62
2021/05/02 10:02:54;;;;;;;13.20;2.42;;;;;;;;;;5032796;28;19905;-62
2021/05/02 10:05:21;;;;;;;13.43;3.10;;;;;;;;;;5034552;28;20025;-65
2021/05/02 10:07:47;;;;;;;12.77;2.72;;;;;;;;;;5032712;28;20029;-65
2021/05/02 10:10:13;;;;;;;9.73;1.80;;;;;;;;;;5035040;28;20030;-60
2021/05/02 10:12:41;;;;;;;11.07;2.20;;;;;;;;;;5032541;28;20022;-63
2021/05/02 10:15:08;;;;;;;10.57;2.63;;;;;;;;;;5033853;28;20068;-61
2021/05/02 10:17:35;;;;;;;11.60;2.53;;;;;;;;;;5014914;28;20419;-61
2021/05/02 10:20:01;;;;;;;12.45;2.33;;;;;;;;;;5033059;28;20056;-51
2021/05/02 10:22:27;;;;;;;11.98;2.00;;;;;;;;;;5032414;28;20026;-56
2021/05/02 10:24:54;;;;;;;10.85;2.13;;;;;;;;;;5033748;28;20338;-58
2021/05/02 10:27:20;;;;;;;13.30;2.50;;;;;;;;;;5033864;28;20040;-61
2021/05/02 10:29:50;;;;;;;11.77;2.30;;;;;;;;;;5032322;28;20315;-58
2021/05/02 10:32:20;;;;;;;11.38;2.00;;;;;;;;;;5032369;28;20021;-62
2021/05/02 10:34:51;;;;;;;10.40;2.72;;;;;;;;;;5032190;28;20037;-59
2021/05/02 10:37:23;;;;;;;11.25;2.53;;;;;;;;;;5032289;28;20025;-60
2021/05/02 10:39:53;;;;;;;11.75;2.08;;;;;;;;;;5033019;28;20092;-57
2021/05/02 10:42:46;;;;;;;11.35;2.55;;;;;;;;;;5032151;28;20068;-59
2021/05/02 10:45:28;;;;;;;10.10;1.90;;;;;;;;;;5027912;28;20390;-57
2021/05/02 10:48:07;;;;;;;10.18;2.45;;;;;;;;;;5032860;28;20037;-59
2021/05/02 10:50:34;;;;;;;10.65;2.17;;;;;;;;;;5032151;28;20029;-59
2021/05/02 10:53:13;;;;;;;10.75;2.33;;;;;;;;;;5031730;28;20056;-60
2021/05/02 10:56:00;;;;;;;13.27;2.47;;;;;;;;;;5033122;28;20079;-58
2021/05/02 10:58:27;;;;;;;13.80;2.28;;;;;;;;;;5031865;28;20500;-59
2021/05/02 11:01:02;;;;;;;8.75;1.90;;;;;;;;;;5032721;28;20037;-58
2021/05/02 11:03:40;;;;;;;7.80;2.08;;;;;;;;;;5033144;28;20032;-53
2021/05/02 11:06:10;;;;;;;11.15;2.15;;;;;;;;;;5032068;28;20030;-60
2021/05/02 11:08:49;;;;;;;10.25;2.60;;;;;;;;;;5031834;28;20461;-60
2021/05/02 11:14:26;;;;;;;8.20;2.13;;;;;;;;;;5031748;28;20538;-60
2021/05/02 11:16:55;;;;;;;15.05;2.55;;;;;;;;;;5029260;28;20060;-58
2021/05/02 11:19:24;;;;;;;10.05;2.85;;;;;;;;;;5032819;28;20112;-63
2021/05/02 11:21:51;;;;;;;9.13;2.50;;;;;;;;;;5032416;28;20029;-63
2021/05/02 11:24:21;;;;;;;11.18;2.28;;;;;;;;;;5032769;28;20104;-54
2021/05/02 11:27:04;;;;;;;9.80;2.47;;;;;;;;;;5031493;28;20064;-58
2021/05/02 11:29:49;;;;;;;10.18;2.38;;;;;;;;;;5031565;28;20329;-48
2021/05/02 11:32:30;;;;;;;13.07;3.03;;;;;;;;;;5031478;28;20029;-60
2021/05/02 11:35:16;;;;;;;12.20;2.47;;;;;;;;;;5031471;28;20055;-61
2021/05/02 11:37:46;;;;;;;10.57;2.20;;;;;;;;;;5031473;28;20026;-64
2021/05/02 11:40:24;;;;;;;9.30;2.20;;;;;;;;;;5031238;28;20040;-61
2021/05/02 11:42:54;;;;;;;16.67;2.75;;;;;;;;;;5031252;28;20025;-59
2021/05/02 11:45:24;;;;;;;10.75;2.42;;;;;;;;;;5031471;28;20355;-57
2021/05/02 11:47:50;;;;;;;12.75;2.45;;;;;;;;;;5032084;28;20022;-63
2021/05/02 11:50:17;;;;;;;14.93;2.67;;;;;;;;;;5031235;28;20072;-62
2021/05/02 11:52:44;;;;;;;12.85;2.70;;;;;;;;;;5031039;28;20080;-62
2021/05/02 11:55:25;;;;;;;13.23;2.30;;;;;;;;;;5031403;28;20541;-60
2021/05/02 11:57:51;;;;;;;9.68;2.72;;;;;;;;;;5034452;28;20041;-60
2021/05/02 12:00:17;;;;;;;10.02;2.20;;;;;;;;;;5035147;28;20031;-61
2021/05/02 12:02:44;;;;;;;12.25;3.35;;;;;;;;;;5035154;28;20026;-61
2021/05/02 12:05:10;;;;;;;16.48;2.83;;;;;;;;;;5035580;28;20479;-60
2021/05/02 12:07:36;;;;;;;15.93;3.10;;;;;;;;;;5035261;28;20022;-62
2021/05/02 12:10:15;;;;;;;13.73;2.88;;;;;;;;;;5035106;28;20037;-61
2021/05/02 12:12:41;;;;;;;10.30;2.55;;;;;;;;;;5035378;28;20488;-61
2021/05/02 12:15:07;;;;;;;16.17;3.05;;;;;;;;;;5034760;28;20550;-61
2021/05/02 12:17:33;;;;;;;10.88;2.22;;;;;;;;;;5034974;28;20033;-61
2021/05/02 12:20:00;;;;;;;12.63;2.67;;;;;;;;;;5034868;28;20483;-61
2021/05/02 12:22:26;;;;;;;12.20;2.38;;;;;;;;;;5035253;28;20060;-62
2021/05/02 12:24:53;;;;;;;14.27;2.58;;;;;;;;;;5034773;28;20056;-59
2021/05/02 12:27:19;;;;;;;13.38;3.10;;;;;;;;;;5034711;28;20035;-61
2021/05/02 12:29:52;;;;;;;14.02;3.58;;;;;;;;;;5034541;28;20025;-62
2021/05/02 12:32:19;;;;;;;14.73;3.55;;;;;;;;;;5034646;28;20034;-59
2021/05/02 12:34:48;;;;;;;11.38;2.65;;;;;;;;;;5034450;28;20022;-62
2021/05/02 12:37:19;;;;;;;12.15;2.85;;;;;;;;;;5034444;28;20029;-61
2021/05/02 12:39:46;;;;;;;12.57;2.63;;;;;;;;;;5034729;28;20025;-63
2021/05/02 12:42:12;;;;;;;10.23;2.58;;;;;;;;;;5034798;28;20365;-61
2021/05/02 12:44:42;;;;;;;11.88;2.88;;;;;;;;;;5034214;28;20495;-60
2021/05/02 12:47:16;;;;;;;11.20;2.92;;;;;;;;;;5034480;28;20022;-60
2021/05/02 12:49:51;;;;;;;13.35;3.35;;;;;;;;;;5034429;28;20032;-62
2021/05/02 12:52:17;;;;;;;13.07;3.30;;;;;;;;;;5033987;28;20054;-59
2021/05/02 12:54:43;;;;;;;15.98;3.40;;;;;;;;;;5034151;28;20029;-61
2021/05/02 12:57:17;;;;;;;10.32;2.13;;;;;;;;;;5034143;28;20515;-62
2021/05/02 12:59:58;;;;;;;10.82;2.42;;;;;;;;;;5035349;28;20033;-60
2021/05/02 13:02:28;;;;;;;8.60;2.00;;;;;;;;;;5035866;28;20030;-59
2021/05/02 13:04:55;;;;;;;11.73;2.78;;;;;;;;;;5034437;28;20114;-64
2021/05/02 13:07:57;;;;;;;15.45;3.15;;;;;;;;;;5033765;28;20030;-61
2021/05/02 13:10:23;;;;;;;11.38;2.90;;;;;;;;;;4933777;29;20035;-61
2021/05/02 13:12:57;;;;;;;12.60;2.33;;;;;;;;;;5014191;28;20048;-62
2021/05/02 13:15:25;;;;;;;9.05;2.55;;;;;;;;;;5016125;28;20390;-61
2021/05/02 13:18:17;;;;;;;11.82;2.70;;;;;;;;;;5033507;28;20022;-60
2021/05/02 13:20:56;;;;;;;13.43;2.45;;;;;;;;;;5029620;28;20041;-60
2021/05/02 13:23:38;;;;;;;14.43;3.38;;;;;;;;;;5035100;28;20048;-60
2021/05/02 13:26:04;;;;;;;;;;;;;;;;;;5034886;28;20091;-60
2021/05/02 13:28:30;;;;;;;8.45;2.35;;;;;;;;;;5033425;28;19972;-60
2021/05/02 13:30:56;;;;;;;11.35;2.90;;;;;;;;;;5033251;28;20059;-60
2021/05/02 13:33:30;;;;;;;11.02;2.78;;;;;;;;;;5033295;28;20025;-59
2021/05/02 13:35:57;;;;;;;11.35;2.40;;;;;;;;;;5033137;28;20396;-59
2021/05/02 13:38:23;;;;;;;9.88;2.45;;;;;;;;;;5033138;28;20017;-61
2021/05/02 13:40:49;;;;;;;14.35;2.75;;;;;;;;;;5033192;28;20112;-60
2021/05/02 13:43:16;;;;;;;10.85;3.15;;;;;;;;;;5033373;28;20033;-58
2021/05/02 13:45:42;;;;;;;12.52;4.38;;;;;;;;;;5034476;28;20033;-60
2021/05/02 13:48:12;;;;;;;15.43;4.30;;;;;;;;;;5032977;28;20029;-60
2021/05/02 13:50:38;;;;;;;17.40;5.60;;;;;;;;;;5033099;28;20025;-60
2021/05/02 13:53:04;;;;;;;21.75;7.80;;;;;;;;;;5032827;28;20045;-60
2021/05/02 13:55:31;;;;;;;17.75;4.38;;;;;;;;;;5032917;28;20029;-61
2021/05/02 13:57:57;;;;;;;22.00;5.55;;;;;;;;;;5033135;28;20026;-62
2021/05/02 14:00:23;;;;;;;12.68;2.85;;;;;;;;;;5032673;28;20104;-64
2021/05/02 14:02:50;;;;;;;19.85;4.43;;;;;;;;;;5032889;28;20113;-61
2021/05/02 14:05:18;;;;;;;13.43;2.92;;;;;;;;;;5033120;28;20025;-61
2021/05/02 14:07:45;;;;;;;10.85;3.17;;;;;;;;;;5032944;28;20132;-60
2021/05/02 14:10:11;;;;;;;21.77;3.88;;;;;;;;;;5032692;28;20088;-60
2021/05/02 14:12:37;;;;;;;10.60;3.25;;;;;;;;;;5032589;28;20032;-60
2021/05/02 14:15:04;;;;;;;10.38;2.38;;;;;;;;;;5032479;28;20448;-59
2021/05/02 14:17:30;;;;;;;16.70;2.88;;;;;;;;;;5032364;28;20492;-60
2021/05/02 14:19:57;;;;;;;9.75;2.30;;;;;;;;;;5031846;28;20037;-60
2021/05/02 14:22:23;;;;;;;12.23;2.92;;;;;;;;;;5032044;28;20570;-62
2021/05/02 14:24:49;;;;;;;15.10;2.75;;;;;;;;;;5032507;28;20030;-63
2021/05/02 14:27:16;;;;;;;11.35;2.53;;;;;;;;;;5032456;28;20018;-60
2021/05/02 14:29:43;;;;;;;8.73;2.40;;;;;;;;;;5032332;28;20271;-60
2021/05/02 14:32:09;;;;;;;7.65;2.13;;;;;;;;;;5031868;28;20075;-61
2021/05/02 14:34:36;;;;;;;11.23;2.33;;;;;;;;;;5032370;28;20025;-61
2021/05/02 14:37:03;;;;;;;16.30;2.50;;;;;;;;;;5032101;28;20056;-62